Madison, WI

5:42 PM CST on December 20, 2014 (GMT -0600)
Atmospheric, Oceanic and Space Sciences Building | Change Station
CLOSE
Current Station
Personal Weather Station
Location: Madison, WI
Elevation: 896 ft
Nearby Weather Stations

Elev 896 ft 43.07 °N, 89.41 °W | Updated 2 minutes ago

Overcast
Overcast
28.4 °F
Feels Like 20 °F
N
8.9
Wind Variable Wind from South

Today
High -- | Low -- °F
--% Chance of Precip.
Yesterday
High -- | Low -- °F
Precip. -- in
7:25 AM 4:25 PM
Waning Crescent, 2% visible
Pressure 30.21 in
Visibility 7.0 miles
Clouds Few 1100 ft
Overcast 3200 ft
Windchill 20 °F
Dew Point 27 °F
Humidity 94%
Rainfall 0.00 in
Snow Depth Not available.
UV 0 out of 12
Pollen .10 out of 12
Air Quality Not available.
Flu Activity Not available.
SPECI KMSN 202316Z 16006KT 7SM -SN FEW011 OVC032 M01/M03 A3021 RMK AO2 P0000 T10111033

More Conditions Fewer Conditions

Pressure 30.21 in
Visibility 7.0 miles
Clouds Few 1100 ft
Overcast 3200 ft
Windchill 20 °F
Dew Point 27 °F
Humidity 94%
Rainfall 0.00 in
Snow Depth Not available.
UV 0 out of 12
Pollen .10 out of 12
Air Quality Not available.
Flu Activity Not available.
SPECI KMSN 202316Z 16006KT 7SM -SN FEW011 OVC032 M01/M03 A3021 RMK AO2 P0000 T10111033

More Conditions Fewer Conditions

10-Day Weather Forecast

Almanac

Astronomy

Dec. 20, 2014 Rise Set
Actual Time
Civil Twilight
Nautical Twilight
Astronomical Twilight
Moon
Length of Visible Light
Length of Day
Tomorrow will be .
, % of the Moon is Illuminated

Today's Extremes

State Highs State Lows

Community

WunderPhotos

Upload Photos

1,779,319 photos uploaded!

WunderBlogs® & News

Nearby

Air Quality

  Air Quality AQ Index Pollutant
Not available.

Snow Depth

Station Depth Elevation

Earthquake Activity

City Distance Mag. Time & Date
Minimum magnitude displayed is 2.5.

Coastal Water Temperatures

Place Temperature

Nearby Weather Stations